M I D A S
Marine Information and Data Acquisition System
Tripno 879 of the Zeeleeuw from 2005-04-07 07:15:14 to 2005-04-07 10:26:14
Back to CruiseResearch ActivitiesStationsMapUnderway DataData graphs

EquipmentUnitsComment
TimeDGPSUTC
LatitudeDGPSDM.mWGS84
LongitudeDGPSDM.mWGS84
HeadingGyrodeg 
SOGDGPSknotsSpeed over ground
COGDGPSdegCourse over ground
DepthEcho soundermeters200 kHz
Missing or incorrect values are displayed as -999
Navigation data collected by the RV Zeeleeuw from 2005-04-07 07:18:36 to 2005-04-07 10:36:32
                                                                                    Next 1000 lines
Time Latitude Longitude Heading SOG COG Depth
2005-04-07 07:18:46 51°13.594 2°56.098 114.2 0.9 298 6.7
2005-04-07 07:18:51 51°13.596 2°56.094 114.9 1.6 298 6.7
2005-04-07 07:18:56 51°13.598 2°56.09 115.5 1.6 298 6.7
2005-04-07 07:19:02 51°13.599 2°56.083 115.8 2.3 298 -999
2005-04-07 07:19:07 51°13.601 2°56.078 115.6 2.7 300 -999
2005-04-07 07:19:12 51°13.603 2°56.072 115.2 3 298 -999
2005-04-07 07:19:16 51°13.605 2°56.067 114.7 3.1 297 -999
2005-04-07 07:19:22 51°13.607 2°56.058 114.2 3.1 297 -999
2005-04-07 07:19:27 51°13.609 2°56.052 113.7 3.5 295 -999
2005-04-07 07:19:32 51°13.611 2°56.044 113.2 3.6 294 -999
2005-04-07 07:19:37 51°13.614 2°56.036 113.1 3.6 294 -999
2005-04-07 07:19:42 51°13.615 2°56.028 112.5 3.6 294 -999
2005-04-07 07:19:47 51°13.617 2°56.022 111.1 3.6 294 -999
2005-04-07 07:19:51 51°13.618 2°56.017 110.1 3 295 -999
2005-04-07 07:19:57 51°13.619 2°56.014 109.3 2 290 -999
2005-04-07 07:20:02 51°13.62 2°56.013 108.4 2 290 -999
2005-04-07 07:20:07 51°13.62 2°56.014 108.2 2 290 -999
2005-04-07 07:20:11 51°13.62 2°56.016 109.1 1 96 -999
2005-04-07 07:20:17 51°13.619 2°56.021 111 1 96 -999
2005-04-07 07:20:22 51°13.618 2°56.024 115.2 1 96 -999
2005-04-07 07:20:27 51°13.617 2°56.026 118.2 1 96 -999
2005-04-07 07:20:32 51°13.617 2°56.027 120 1 102 -999
2005-04-07 07:20:36 51°13.618 2°56.027 121.6 0.1 25 -999
2005-04-07 07:20:42 51°13.619 2°56.025 122.8 0.5 324 -999
2005-04-07 07:20:46 51°13.62 2°56.023 123.3 0.5 324 -999
2005-04-07 07:20:52 51°13.621 2°56.02 123.3 1.2 304 -999
2005-04-07 07:20:56 51°13.623 2°56.016 123.4 2.2 302 -999
2005-04-07 07:21:02 51°13.625 2°56.011 123.6 2.5 305 -999
2005-04-07 07:21:07 51°13.627 2°56.005 123.8 2.5 305 -999
2005-04-07 07:21:12 51°13.629 2°55.999 123.9 3.2 303 -999
2005-04-07 07:21:16 51°13.631 2°55.993 123.6 3.4 301 -999
2005-04-07 07:21:22 51°13.634 2°55.985 123.6 3.4 300 -999
2005-04-07 07:21:27 51°13.636 2°55.978 123.6 3.4 300 -999
2005-04-07 07:21:32 51°13.639 2°55.971 123.7 3.9 301 -999
2005-04-07 07:21:36 51°13.642 2°55.963 124.1 4.2 302 -999
2005-04-07 07:21:42 51°13.646 2°55.954 124.5 4.3 302 -999
2005-04-07 07:21:46 51°13.649 2°55.947 124.7 4.5 302 -999
2005-04-07 07:21:52 51°13.652 2°55.937 124.2 4.5 302 -999
2005-04-07 07:21:57 51°13.656 2°55.929 123.7 4.5 302 -999
2005-04-07 07:22:02 51°13.659 2°55.92 122.9 4.7 302 -999
2005-04-07 07:22:06 51°13.662 2°55.911 121.7 4.8 302 -999
2005-04-07 07:22:12 51°13.666 2°55.902 120.9 4.8 301 -999
2005-04-07 07:22:17 51°13.669 2°55.892 119.9 4.8 301 -999
2005-04-07 07:22:22 51°13.673 2°55.882 119.1 4.9 299 -999
2005-04-07 07:22:27 51°13.675 2°55.873 118.3 5 299 -999
2005-04-07 07:22:32 51°13.679 2°55.863 116.6 5 298 -999
2005-04-07 07:22:37 51°13.682 2°55.852 115 5 298 -999
2005-04-07 07:22:42 51°13.684 2°55.842 112.5 5 298 -999
2005-04-07 07:22:46 51°13.687 2°55.833 109.4 5.1 293 -999
2005-04-07 07:22:52 51°13.689 2°55.821 106.3 5.1 289 -999
2005-04-07 07:22:56 51°13.69 2°55.813 103.6 4.8 285 -999
2005-04-07 07:23:02 51°13.692 2°55.8 100.9 4.8 285 -999
2005-04-07 07:23:06 51°13.693 2°55.792 98.7 4.6 282 -999
2005-04-07 07:23:12 51°13.694 2°55.781 96.7 4.4 279 -999
2005-04-07 07:23:17 51°13.695 2°55.772 94.8 4.4 278 -999
2005-04-07 07:23:22 51°13.695 2°55.762 92.5 4.1 276 -999
2005-04-07 07:23:27 51°13.695 2°55.754 90.3 4.1 276 -999
2005-04-07 07:23:32 51°13.696 2°55.747 88.2 4.1 276 -999
2005-04-07 07:23:36 51°13.696 2°55.743 85.4 4.1 276 -999
2005-04-07 07:23:42 51°13.696 2°55.74 81.1 4.1 276 -999
2005-04-07 07:23:47 51°13.697 2°55.74 74.7 4.1 276 -999
2005-04-07 07:23:52 51°13.698 2°55.742 66.9 0.6 13 -999
2005-04-07 07:23:56 51°13.699 2°55.742 58.3 0.9 37 -999
2005-04-07 07:24:02 51°13.7 2°55.743 52.3 0.9 26 -999
2005-04-07 07:24:07 51°13.7 2°55.742 47.9 0.9 26 -999
2005-04-07 07:24:12 51°13.699 2°55.741 44.8 0.9 26 5.5
2005-04-07 07:24:16 51°13.698 2°55.739 41.6 0.9 227 5.4
2005-04-07 07:24:22 51°13.697 2°55.737 38.9 0.9 227 -999
2005-04-07 07:24:27 51°13.695 2°55.734 36.3 1.7 219 12.3
2005-04-07 07:24:32 51°13.693 2°55.732 34.8 1.7 219 -999
2005-04-07 07:24:36 51°13.692 2°55.73 33.8 1.5 217 -999
2005-04-07 07:24:42 51°13.691 2°55.729 32.3 0.8 226 -999
2005-04-07 07:24:47 51°13.692 2°55.729 29 0.8 226 -999
2005-04-07 07:24:52 51°13.694 2°55.73 24.2 1.1 3 6.9
2005-04-07 07:24:56 51°13.696 2°55.73 16.7 1.7 8 -999
2005-04-07 07:25:02 51°13.7 2°55.729 8.3 2 354 -999
2005-04-07 07:25:07 51°13.703 2°55.728 -999 2.2 352 5.6
2005-04-07 07:25:11 51°13.707 2°55.726 353.4 2.4 350 -999
2005-04-07 07:25:16 51°13.711 2°55.723 347 3.1 344 11.4
2005-04-07 07:25:21 51°13.717 2°55.719 341.1 3.9 335 10.6
2005-04-07 07:25:26 51°13.722 2°55.714 336.3 3.9 335 10.2
2005-04-07 07:25:31 51°13.728 2°55.709 334.4 4.7 331 10.1
2005-04-07 07:25:36 51°13.735 2°55.703 333.7 5 330 10.2
2005-04-07 07:25:41 51°13.742 2°55.697 334.5 5.4 331 10
2005-04-07 07:25:46 51°13.749 2°55.691 335.3 5.5 332 9.6
2005-04-07 07:25:52 51°13.757 2°55.685 336 5.8 333 9.5
2005-04-07 07:25:56 51°13.763 2°55.68 336.6 6 333 9.4
2005-04-07 07:26:01 51°13.772 2°55.673 337.1 6.2 333 9.5
2005-04-07 07:26:06 51°13.78 2°55.667 337.2 6.2 333 9.6
2005-04-07 07:26:12 51°13.788 2°55.659 336.9 6.3 333 9.7
2005-04-07 07:26:16 51°13.795 2°55.654 336.4 6.6 333 9.7
2005-04-07 07:26:21 51°13.804 2°55.647 336.4 6.6 333 9.7
2005-04-07 07:26:26 51°13.813 2°55.64 336.8 6.6 333 9.9
2005-04-07 07:26:31 51°13.821 2°55.634 337.3 6.8 334 9.8
2005-04-07 07:26:36 51°13.83 2°55.627 337.8 6.9 334 9.8
2005-04-07 07:26:40 51°13.836 2°55.622 338.2 7.1 335 9.8
2005-04-07 07:26:46 51°13.848 2°55.614 338.6 7.1 335 9.9
2005-04-07 07:26:52 51°13.858 2°55.607 338.6 7.2 335 9.6
2005-04-07 07:26:56 51°13.865 2°55.601 338.6 7.2 335 9.6
2005-04-07 07:27:00 51°13.873 2°55.596 338.8 7.2 336 9.6
2005-04-07 07:27:06 51°13.884 2°55.588 339.3 7.2 336 9.7
2005-04-07 07:27:11 51°13.894 2°55.581 339.4 7.3 336 9.6
2005-04-07 07:27:16 51°13.903 2°55.574 339 7.3 336 9.7
2005-04-07 07:27:20 51°13.91 2°55.569 338.9 6.1 336 9.5
2005-04-07 07:27:26 51°13.921 2°55.561 339 5.8 336 9.6
2005-04-07 07:27:30 51°13.93 2°55.555 339 7.6 335 9.5
2005-04-07 07:27:36 51°13.941 2°55.547 338.9 7.6 335 9.5
2005-04-07 07:27:42 51°13.952 2°55.539 338.9 7.5 335 9.6
2005-04-07 07:27:46 51°13.959 2°55.534 338.9 7.5 335 9.6
2005-04-07 07:27:50 51°13.968 2°55.528 339.2 7.5 336 9.5
2005-04-07 07:27:56 51°13.979 2°55.52 339.2 7.5 336 9.6
2005-04-07 07:27:59 51°13.984 2°55.516 339 7.5 335 9.6
2005-04-07 07:28:06 51°13.998 2°55.506 338.9 7.5 335 9.6
2005-04-07 07:28:12 51°14.009 2°55.498 339 7.5 336 9.2
2005-04-07 07:28:16 51°14.016 2°55.493 339 7.5 335 9.4
2005-04-07 07:28:20 51°14.025 2°55.487 339.2 7.5 336 9.1
2005-04-07 07:28:26 51°14.036 2°55.479 339.5 7.5 336 9.1
2005-04-07 07:28:30 51°14.044 2°55.473 339.6 7.4 336 8.7
2005-04-07 07:28:36 51°14.054 2°55.466 339.7 7.4 336 9
2005-04-07 07:28:41 51°14.065 2°55.459 340.3 7.4 336 9.3
2005-04-07 07:28:46 51°14.074 2°55.452 340.6 7.4 336 9.1
2005-04-07 07:28:50 51°14.082 2°55.446 340.4 7.4 336 9.1
2005-04-07 07:28:56 51°14.093 2°55.438 339.7 7.5 336 9.2
2005-04-07 07:29:02 51°14.104 2°55.43 339.2 7.5 336 9.3
2005-04-07 07:29:06 51°14.112 2°55.423 338.9 7.9 335 9.2
2005-04-07 07:29:11 51°14.123 2°55.416 339 8.2 335 9.4
2005-04-07 07:29:16 51°14.133 2°55.408 338.9 8.3 334 9.9
2005-04-07 07:29:22 51°14.146 2°55.397 338.1 8.3 334 10.2
2005-04-07 07:29:26 51°14.156 2°55.389 337.3 8.6 333 10
2005-04-07 07:29:30 51°14.164 2°55.382 335.9 8.7 331 10.1
2005-04-07 07:29:36 51°14.176 2°55.371 334.6 8.8 331 10.5
2005-04-07 07:29:41 51°14.187 2°55.36 333.4 8.9 329 11
2005-04-07 07:29:46 51°14.197 2°55.35 331.9 9 328 10.4
2005-04-07 07:29:52 51°14.209 2°55.336 329.5 9 328 10.4
2005-04-07 07:29:56 51°14.218 2°55.325 327.4 9 324 10.1
2005-04-07 07:30:02 51°14.228 2°55.31 325.6 9.1 321 10.1
2005-04-07 07:30:06 51°14.237 2°55.299 323.2 9.1 319 10.9
2005-04-07 07:30:10 51°14.244 2°55.287 321.5 9.1 317 10.4
2005-04-07 07:30:15 51°14.253 2°55.273 320 9.1 316 10.2
2005-04-07 07:30:21 51°14.264 2°55.256 318.6 9.1 316 10.5
2005-04-07 07:30:26 51°14.271 2°55.243 317.3 9.1 313 10.3
2005-04-07 07:30:31 51°14.281 2°55.227 316.5 9.1 313 10.3
2005-04-07 07:30:36 51°14.288 2°55.213 315 9.1 312 10.2
2005-04-07 07:30:41 51°14.297 2°55.196 313.6 9.1 311 10
2005-04-07 07:30:46 51°14.305 2°55.181 313 9.1 311 10.4
2005-04-07 07:30:52 51°14.315 2°55.164 313.1 9.1 311 10.3
2005-04-07 07:30:56 51°14.322 2°55.151 314.2 9.4 313 10.5
2005-04-07 07:31:01 51°14.332 2°55.134 314.5 9.4 313 10.4
2005-04-07 07:31:06 51°14.341 2°55.118 314.3 9.6 312 10.3
2005-04-07 07:31:10 51°14.348 2°55.106 314.1 9.7 312 10.3
2005-04-07 07:31:16 51°14.359 2°55.089 315 9.7 312 10.5
2005-04-07 07:31:21 51°14.37 2°55.072 317.1 9.8 316 9.7
2005-04-07 07:31:26 51°14.379 2°55.059 319.3 9.9 318 10.3
2005-04-07 07:31:32 51°14.393 2°55.044 322.9 9.9 318 10.4
2005-04-07 07:31:36 51°14.403 2°55.033 325.8 10.2 324 10.5
2005-04-07 07:31:42 51°14.418 2°55.02 329.4 10.4 328 10.1
2005-04-07 07:31:46 51°14.43 2°55.011 333.2 10.7 332 10.1
2005-04-07 07:31:52 51°14.446 2°55 336.8 10.8 335 9.9
2005-04-07 07:31:56 51°14.457 2°54.993 340.5 11 336 9.9
2005-04-07 07:32:02 51°14.474 2°54.982 342.6 11 336 9.8
2005-04-07 07:32:06 51°14.486 2°54.975 343.9 11.2 339 9.6
2005-04-07 07:32:10 51°14.499 2°54.967 344.8 11.3 339 9.6
2005-04-07 07:32:16 51°14.515 2°54.958 345.6 11.3 339 9.3
2005-04-07 07:32:22 51°14.533 2°54.948 346.7 11.2 341 9.3
2005-04-07 07:32:26 51°14.545 2°54.941 345.8 11.5 340 9.3
2005-04-07 07:32:31 51°14.561 2°54.933 346.9 11.4 341 9.4
2005-04-07 07:32:36 51°14.576 2°54.925 346.8 11.5 339 9.6
2005-04-07 07:32:42 51°14.594 2°54.914 346.9 11.6 341 9.6
2005-04-07 07:32:46 51°14.607 2°54.906 346.8 11.6 340 9.4
2005-04-07 07:32:51 51°14.621 2°54.9 347.4 11.6 341 9
2005-04-07 07:32:56 51°14.637 2°54.891 347.4 11.7 342 9.4
2005-04-07 07:33:02 51°14.655 2°54.882 347.5 11.7 342 9.2
2005-04-07 07:33:06 51°14.668 2°54.874 348 11.7 342 9.2
2005-04-07 07:33:11 51°14.684 2°54.866 348.2 11.6 342 9.4
2005-04-07 07:33:16 51°14.698 2°54.86 347.8 11.6 342 9.2
2005-04-07 07:33:22 51°14.716 2°54.85 348 11.6 342 9.3
2005-04-07 07:33:26 51°14.73 2°54.844 348.1 11.6 345 9.1
2005-04-07 07:33:31 51°14.746 2°54.839 349.4 11.5 344 8.6
2005-04-07 07:33:36 51°14.76 2°54.834 353 11.5 344 8.7
2005-04-07 07:33:42 51°14.779 2°54.829 355 11.6 350 8.8
2005-04-07 07:33:46 51°14.791 2°54.826 355.9 11.6 350 9.1
2005-04-07 07:33:51 51°14.809 2°54.822 356.5 11.5 350 9.3
2005-04-07 07:33:56 51°14.823 2°54.818 357.3 11.6 351 9.3
2005-04-07 07:34:00 51°14.836 2°54.815 357.6 11.6 352 9.4
2005-04-07 07:34:06 51°14.856 2°54.811 357.2 11.6 353 9.4
2005-04-07 07:34:11 51°14.872 2°54.808 358.4 11.5 352 9
2005-04-07 07:34:16 51°14.889 2°54.805 358.4 11.6 354 9.1
2005-04-07 07:34:21 51°14.903 2°54.802 358.9 11.6 354 9.1
2005-04-07 07:34:26 51°14.92 2°54.799 358.5 11.6 352 9.1
2005-04-07 07:34:30 51°14.933 2°54.797 358.5 11.6 353 8.9
2005-04-07 07:34:36 51°14.951 2°54.793 358.3 11.5 352 9.1
2005-04-07 07:34:41 51°14.968 2°54.789 358.4 11.5 352 9
2005-04-07 07:34:46 51°14.984 2°54.787 357.7 11.5 352 8.7
2005-04-07 07:34:51 51°15 2°54.784 358.4 11.6 354 8.8
2005-04-07 07:34:56 51°15.014 2°54.783 359.2 11.5 354 8.7
2005-04-07 07:35:02 51°15.033 2°54.782 0.9 11.6 357 8.5
2005-04-07 07:35:06 51°15.048 2°54.781 2.6 11.6 357 8.5
2005-04-07 07:35:12 51°15.065 2°54.78 3 11.6 357 8.6
2005-04-07 07:35:16 51°15.078 2°54.782 4.4 11.5 3 8.1
2005-04-07 07:35:19 51°15.089 2°54.78 5.1 11.5 357 8.2
2005-04-07 07:35:26 51°15.111 2°54.783 5.6 11.4 2 8
2005-04-07 07:35:31 51°15.127 2°54.781 6.4 11.4 2 7.9
2005-04-07 07:35:36 51°15.141 2°54.782 5.9 11.3 2 7.9
2005-04-07 07:35:42 51°15.16 2°54.782 5.5 11.4 3 7.9
2005-04-07 07:35:46 51°15.174 2°54.782 4.6 11.3 359 7.9
2005-04-07 07:35:51 51°15.19 2°54.784 5.9 11.3 3 8.1
2005-04-07 07:35:56 51°15.204 2°54.785 8.8 11.4 5 8.4
2005-04-07 07:36:01 51°15.221 2°54.79 8.6 11.2 8 8.1
2005-04-07 07:36:06 51°15.235 2°54.793 13.4 11.4 10 8.3
2005-04-07 07:36:11 51°15.252 2°54.798 13.5 11.4 10 8.3
2005-04-07 07:36:16 51°15.266 2°54.802 14.5 11.4 11 8.4
2005-04-07 07:36:21 51°15.283 2°54.807 13.7 11.4 11 8.2
2005-04-07 07:36:26 51°15.299 2°54.812 15.8 11.4 11 8.3
2005-04-07 07:36:32 51°15.316 2°54.817 15.1 11.5 8 8.3
2005-04-07 07:36:36 51°15.328 2°54.821 15.2 11.4 12 8.5
2005-04-07 07:36:42 51°15.347 2°54.826 15.9 11.4 12 8.7
2005-04-07 07:36:46 51°15.361 2°54.831 15.9 11.5 11 8.7
2005-04-07 07:36:52 51°15.378 2°54.838 17.1 11.5 11 8.6
2005-04-07 07:36:56 51°15.393 2°54.842 17 11.6 10 8.5
2005-04-07 07:37:01 51°15.408 2°54.848 17.4 11.4 14 8.5
2005-04-07 07:37:06 51°15.423 2°54.854 18.7 11.4 14 8.5
2005-04-07 07:37:12 51°15.44 2°54.861 17.7 11.4 12 8.6
2005-04-07 07:37:16 51°15.452 2°54.866 19.7 11.4 16 8.6
2005-04-07 07:37:22 51°15.47 2°54.873 19.5 11.5 12 8.6
2005-04-07 07:37:26 51°15.484 2°54.88 19.6 11.4 14 8.8
2005-04-07 07:37:30 51°15.496 2°54.887 21.5 11.4 18 8.7
2005-04-07 07:37:35 51°15.512 2°54.893 22.3 11.5 18 8.8
2005-04-07 07:37:41 51°15.53 2°54.904 22.7 11.5 14 9.1
2005-04-07 07:37:46 51°15.545 2°54.913 23.8 11.4 18 9.1
2005-04-07 07:37:51 51°15.559 2°54.923 25.1 11.4 22 9.2
2005-04-07 07:37:56 51°15.572 2°54.933 27.9 11.3 24 9.2
2005-04-07 07:38:01 51°15.587 2°54.945 30.8 11.3 24 9.2
2005-04-07 07:38:06 51°15.601 2°54.958 31.9 11.3 24 9.3
2005-04-07 07:38:11 51°15.614 2°54.971 33.8 11.2 30 9.3
2005-04-07 07:38:16 51°15.626 2°54.981 34 11.3 28 9.2
2005-04-07 07:38:21 51°15.639 2°54.995 34.1 11.2 33 9.1
2005-04-07 07:38:26 51°15.652 2°55.008 35.7 11.2 31 9.2
2005-04-07 07:38:30 51°15.664 2°55.02 36.6 11.1 32 9.4
2005-04-07 07:38:35 51°15.676 2°55.036 38.2 11.1 32 9.4
2005-04-07 07:38:42 51°15.69 2°55.058 40 10.9 44 9.4
2005-04-07 07:38:46 51°15.699 2°55.07 46.7 10.9 45 9.4
2005-04-07 07:38:51 51°15.711 2°55.088 45.4 10.9 45 9.5
2005-04-07 07:38:56 51°15.722 2°55.106 47.2 11 46 9.5
2005-04-07 07:39:01 51°15.732 2°55.124 46.8 11.1 44 9.4
2005-04-07 07:39:06 51°15.743 2°55.141 50.2 11.2 51 9.5
2005-04-07 07:39:12 51°15.754 2°55.161 49.8 11.2 51 9.7
2005-04-07 07:39:16 51°15.762 2°55.176 49.9 11 52 9.3
2005-04-07 07:39:22 51°15.775 2°55.197 51.7 11 52 9.3
2005-04-07 07:39:26 51°15.783 2°55.216 50 11 51 9.2
2005-04-07 07:39:32 51°15.795 2°55.234 54 11 51 9.2
2005-04-07 07:39:36 51°15.802 2°55.25 51.1 11.1 44 9.3
2005-04-07 07:39:42 51°15.814 2°55.273 54.4 11.3 54 9.3
2005-04-07 07:39:46 51°15.823 2°55.287 52.3 11.5 42 9.4
2005-04-07 07:39:51 51°15.834 2°55.309 49.7 11.5 42 9.4
2005-04-07 07:39:56 51°15.846 2°55.327 50.7 11.5 48 9.4
2005-04-07 07:40:02 51°15.858 2°55.349 50 11.9 52 9.4
2005-04-07 07:40:06 51°15.868 2°55.367 50.6 11.9 48 9.4
2005-04-07 07:40:11 51°15.879 2°55.389 52.4 12.3 53 9.4
2005-04-07 07:40:16 51°15.888 2°55.407 52.5 12.2 49 9.4
2005-04-07 07:40:21 51°15.899 2°55.431 55.8 12.2 57 9.4
2005-04-07 07:40:26 51°15.908 2°55.451 55.5 12.2 49 9.4
2005-04-07 07:40:32 51°15.918 2°55.48 57.6 12.3 52 9.4
2005-04-07 07:40:36 51°15.928 2°55.501 59.4 12.3 52 9.4
2005-04-07 07:40:40 51°15.932 2°55.518 61.2 12.5 66 9.3
2005-04-07 07:40:46 51°15.945 2°55.549 64.8 12.7 59 9.2
2005-04-07 07:40:50 51°15.952 2°55.568 60.9 12.7 58 9.3
2005-04-07 07:40:55 51°15.962 2°55.59 58.7 12.7 58 9.4
2005-04-07 07:41:01 51°15.972 2°55.62 60.5 12.8 62 9.3
2005-04-07 07:41:06 51°15.981 2°55.645 61.6 12.8 62 9.3
2005-04-07 07:41:11 51°15.989 2°55.666 60.9 12.8 62 9.5
2005-04-07 07:41:16 51°15.998 2°55.691 62.5 12.6 60 9.4
2005-04-07 07:41:20 51°16.007 2°55.713 62.9 12.8 58 9.4
2005-04-07 07:41:26 51°16.016 2°55.743 63.7 12.9 61 9.4
2005-04-07 07:41:31 51°16.026 2°55.767 64.5 13 60 9.5
2005-04-07 07:41:36 51°16.034 2°55.789 62.1 13 60 9.5
2005-04-07 07:41:40 51°16.04 2°55.809 63 12.7 61 9.4
2005-04-07 07:41:46 51°16.053 2°55.842 63.8 12.7 61 9.3
2005-04-07 07:41:51 51°16.062 2°55.867 62.4 12.7 61 9.2
2005-04-07 07:41:56 51°16.071 2°55.893 61.3 12.7 61 9.4
2005-04-07 07:42:00 51°16.077 2°55.91 63.8 12.8 64 9.4
2005-04-07 07:42:06 51°16.087 2°55.944 65.4 13 62 9.4
2005-04-07 07:42:10 51°16.095 2°55.965 66.1 13.5 62 9.3
2005-04-07 07:42:15 51°16.104 2°55.99 64 13.5 62 9.4
2005-04-07 07:42:21 51°16.115 2°56.019 62.2 12.9 59 9.4
2005-04-07 07:42:26 51°16.124 2°56.043 62 12.9 59 9.5
2005-04-07 07:42:31 51°16.134 2°56.067 62.4 12.8 58 9.4
2005-04-07 07:42:36 51°16.143 2°56.09 61.4 13.3 57 9.3
2005-04-07 07:42:41 51°16.155 2°56.117 59.8 13.3 55 9.3
2005-04-07 07:42:46 51°16.164 2°56.141 58.5 13 56 9.4
2005-04-07 07:42:52 51°16.173 2°56.167 59.5 12.5 58 9.6
2005-04-07 07:42:56 51°16.181 2°56.191 62.7 12.5 58 9.4
2005-04-07 07:43:00 51°16.189 2°56.207 63.7 13.5 56 9.4
2005-04-07 07:43:06 51°16.2 2°56.236 59.1 13.4 54 9.5
2005-04-07 07:43:12 51°16.212 2°56.263 60.9 13.4 54 9.6
2005-04-07 07:43:16 51°16.22 2°56.282 59.5 12.6 56 9.5
2005-04-07 07:43:22 51°16.233 2°56.31 57.3 13.2 53 9.4
2005-04-07 07:43:26 51°16.241 2°56.329 57.3 13.2 56 9.5
2005-04-07 07:43:31 51°16.252 2°56.355 58.2 13 57 9.6
2005-04-07 07:43:36 51°16.261 2°56.379 60.1 12.7 57 9.6
2005-04-07 07:43:42 51°16.271 2°56.406 61.7 12.7 57 9.5
2005-04-07 07:43:46 51°16.278 2°56.425 62.6 13 59 9.5
2005-04-07 07:43:51 51°16.289 2°56.451 61.6 12.8 57 9.6
2005-04-07 07:43:56 51°16.297 2°56.472 59.9 12.8 57 9.6
2005-04-07 07:44:01 51°16.308 2°56.498 60.7 12.5 58 9.5
2005-04-07 07:44:06 51°16.318 2°56.522 59 12.9 56 9.5
2005-04-07 07:44:12 51°16.329 2°56.547 57.3 12.9 56 9.5
2005-04-07 07:44:16 51°16.335 2°56.566 60.3 12.5 62 9.6
2005-04-07 07:44:22 51°16.346 2°56.595 62.2 12.6 62 9.6
2005-04-07 07:44:26 51°16.354 2°56.616 62.3 12.7 60 9.6
2005-04-07 07:44:31 51°16.363 2°56.639 62.6 12.4 60 9.6
2005-04-07 07:44:36 51°16.371 2°56.665 62 12.4 60 9.6
2005-04-07 07:44:41 51°16.379 2°56.686 63.8 12.7 64 9.6
2005-04-07 07:44:46 51°16.387 2°56.71 63.7 12.6 59 9.5
2005-04-07 07:44:51 51°16.397 2°56.737 64 12.6 61 9.6
2005-04-07 07:44:56 51°16.406 2°56.759 63.3 12.9 58 9.5
2005-04-07 07:44:59 51°16.412 2°56.776 62.3 13 58 9.5
2005-04-07 07:45:06 51°16.425 2°56.81 60.7 13 58 9.5
2005-04-07 07:45:10 51°16.432 2°56.829 62.4 12.8 62 9.5
2005-04-07 07:45:15 51°16.442 2°56.854 62.2 12.9 58 9.6
2005-04-07 07:45:22 51°16.452 2°56.888 64.3 13.2 64 9.6
2005-04-07 07:45:26 51°16.459 2°56.908 65.1 13.2 62 9.5
2005-04-07 07:45:32 51°16.469 2°56.937 64.2 13.2 62 9.7
2005-04-07 07:45:36 51°16.476 2°56.96 64.5 12.5 61 9.7
2005-04-07 07:45:42 51°16.487 2°56.987 66.4 12.7 63 9.5
2005-04-07 07:45:46 51°16.495 2°57.008 63.3 13.5 58 9.5
2005-04-07 07:45:50 51°16.504 2°57.03 61.2 13.2 58 9.4
2005-04-07 07:45:55 51°16.513 2°57.054 61.3 13.2 58 9.8
2005-04-07 07:46:02 51°16.524 2°57.086 62.9 13.2 58 9.6
2005-04-07 07:46:06 51°16.531 2°57.11 64.2 13.2 58 9.5
2005-04-07 07:46:11 51°16.54 2°57.134 65.2 13.5 62 9.4
2005-04-07 07:46:16 51°16.55 2°57.159 62.2 13.5 62 9.5
2005-04-07 07:46:22 51°16.559 2°57.188 61.9 12.5 62 9.7
2005-04-07 07:46:26 51°16.564 2°57.209 66.8 12.3 67 9.7
2005-04-07 07:46:31 51°16.574 2°57.237 68.2 12.6 65 9.5
2005-04-07 07:46:36 51°16.583 2°57.26 64.4 13.6 61 9.5
2005-04-07 07:46:42 51°16.594 2°57.291 62.9 13.5 59 9.4
2005-04-07 07:46:46 51°16.602 2°57.313 63.1 13.2 61 9.4
2005-04-07 07:46:50 51°16.609 2°57.334 62.7 13.3 62 9.5
2005-04-07 07:46:56 51°16.618 2°57.362 63.8 13 62 9.5
2005-04-07 07:46:59 51°16.622 2°57.38 68.1 12.5 68 9.8
2005-04-07 07:47:06 51°16.632 2°57.417 70.3 12.6 67 9.5
2005-04-07 07:47:12 51°16.642 2°57.447 69.7 13.1 67 9.6
2005-04-07 07:47:16 51°16.65 2°57.466 65.7 13.6 62 9.4
2005-04-07 07:47:21 51°16.659 2°57.494 63.8 13 62 9.4
2005-04-07 07:47:26 51°16.67 2°57.518 63.6 13.2 58 9.3
2005-04-07 07:47:31 51°16.678 2°57.542 60.1 13.3 55 9.5
2005-04-07 07:47:36 51°16.686 2°57.564 62 12.7 60 9.5
2005-04-07 07:47:41 51°16.697 2°57.593 63.6 12.8 61 9.3
2005-04-07 07:47:46 51°16.707 2°57.618 61.2 13.6 57 9.5
2005-04-07 07:47:52 51°16.715 2°57.645 61.4 13.6 57 9.6
2005-04-07 07:47:56 51°16.724 2°57.669 64.8 12.6 63 9.5
2005-04-07 07:48:02 51°16.734 2°57.696 64 12.6 63 9.5
2005-04-07 07:48:06 51°16.74 2°57.716 62.4 12.9 60 9.7
2005-04-07 07:48:11 51°16.749 2°57.744 64.9 12.6 64 9.5
2005-04-07 07:48:16 51°16.758 2°57.766 65.7 12.8 62 9.4
2005-04-07 07:48:22 51°16.769 2°57.796 63.5 13.3 59 9.4
2005-04-07 07:48:26 51°16.777 2°57.815 61.6 13 57 9.5
2005-04-07 07:48:31 51°16.786 2°57.842 61.3 13 57 9.5
2005-04-07 07:48:36 51°16.794 2°57.864 62.8 12.7 60 9.6
2005-04-07 07:48:42 51°16.805 2°57.894 62.7 12.9 60 9.4
2005-04-07 07:48:46 51°16.814 2°57.916 62 13.1 59 9.5
2005-04-07 07:48:50 51°16.82 2°57.936 62.4 12.6 62 9.4
2005-04-07 07:48:55 51°16.829 2°57.96 64.4 12.8 61 9.4
2005-04-07 07:49:02 51°16.841 2°57.992 62.4 12.8 61 9.4
2005-04-07 07:49:06 51°16.848 2°58.012 62.9 13.1 62 9.2
2005-04-07 07:49:12 51°16.861 2°58.04 61.6 13.1 60 9.3
2005-04-07 07:49:16 51°16.867 2°58.06 60.2 12.6 59 9.4
2005-04-07 07:49:20 51°16.874 2°58.079 62.4 12.6 61 9.3
2005-04-07 07:49:27 51°16.887 2°58.114 64.5 12.6 61 9.3
2005-04-07 07:49:31 51°16.896 2°58.136 60.3 13.1 55 9.3
2005-04-07 07:49:36 51°16.903 2°58.157 61.5 13.1 55 9.4
2005-04-07 07:49:41 51°16.912 2°58.184 61.9 12.4 59 9.4
2005-04-07 07:49:46 51°16.92 2°58.206 64.1 12.7 64 9.4
2005-04-07 07:49:50 51°16.929 2°58.229 64.2 13.2 59 9.3
2005-04-07 07:49:56 51°16.939 2°58.258 62.4 13.2 59 9.4
2005-04-07 07:50:01 51°16.946 2°58.282 63.2 12.2 63 9.4
2005-04-07 07:50:06 51°16.954 2°58.308 66.6 12.2 63 9.2
2005-04-07 07:50:12 51°16.965 2°58.336 65.5 12.2 63 9.1
2005-04-07 07:50:16 51°16.971 2°58.356 64.3 13.2 61 9.3
2005-04-07 07:50:21 51°16.98 2°58.383 65 12.6 61 9.3
2005-04-07 07:50:26 51°16.987 2°58.41 66.8 12.7 64 9.3
2005-04-07 07:50:31 51°16.995 2°58.435 66.9 13 66 9.4
2005-04-07 07:50:36 51°17.001 2°58.458 67.8 12.7 67 9.4
2005-04-07 07:50:40 51°17.007 2°58.479 69.2 12.9 65 9.3
2005-04-07 07:50:46 51°17.017 2°58.51 67.9 13.1 65 9.3
2005-04-07 07:50:52 51°17.025 2°58.541 66.2 13.1 65 9.3
2005-04-07 07:50:57 51°17.033 2°58.568 67.9 12.8 67 9.2
2005-04-07 07:51:02 51°17.04 2°58.594 68.5 13.2 65 9.3
2005-04-07 07:51:06 51°17.047 2°58.618 67.4 13.2 65 9.3
2005-04-07 07:51:11 51°17.053 2°58.646 69.3 13.2 65 9.3
2005-04-07 07:51:16 51°17.06 2°58.671 71.5 13.7 67 9.2
2005-04-07 07:51:20 51°17.067 2°58.691 67.2 13.4 63 9.2
2005-04-07 07:51:26 51°17.076 2°58.725 66.8 12.7 66 9.4
2005-04-07 07:51:32 51°17.083 2°58.754 69.8 12.8 68 9.2
2005-04-07 07:51:36 51°17.089 2°58.775 70.4 13.2 67 9.2
2005-04-07 07:51:42 51°17.097 2°58.808 69.3 13.2 68 9.3
2005-04-07 07:51:46 51°17.104 2°58.832 70.6 13.2 69 9.3
2005-04-07 07:51:52 51°17.112 2°58.862 70.4 13.2 69 9.3
2005-04-07 07:51:56 51°17.118 2°58.883 68.9 13.3 66 9.3
2005-04-07 07:52:01 51°17.126 2°58.911 67.6 13 65 9.3
2005-04-07 07:52:06 51°17.132 2°58.935 69.8 13 68 9.3
2005-04-07 07:52:12 51°17.142 2°58.969 69.7 13 68 9.1
2005-04-07 07:52:16 51°17.15 2°58.993 68.2 13.6 65 9.1
2005-04-07 07:52:22 51°17.158 2°59.02 66.3 12.9 64 9.3
2005-04-07 07:52:26 51°17.165 2°59.043 66.5 12.7 64 9.3
2005-04-07 07:52:31 51°17.173 2°59.07 66.7 12.7 64 9.3
2005-04-07 07:52:36 51°17.181 2°59.093 64.5 13.3 62 9.2
2005-04-07 07:52:41 51°17.191 2°59.121 64.2 13.1 62 9.3
2005-04-07 07:52:46 51°17.199 2°59.146 64.4 13.1 62 9.3
2005-04-07 07:52:50 51°17.206 2°59.166 65.1 13 61 9.3
2005-04-07 07:52:55 51°17.215 2°59.192 63.9 13.1 60 9.2
2005-04-07 07:53:02 51°17.228 2°59.224 63.8 13.3 58 9.3
2005-04-07 07:53:07 51°17.237 2°59.25 61.6 13.3 58 9.2
2005-04-07 07:53:11 51°17.244 2°59.271 61.6 13.3 61 9.1
2005-04-07 07:53:16 51°17.253 2°59.295 62.4 13.3 61 9.4
2005-04-07 07:53:22 51°17.261 2°59.326 63.1 13.3 61 9.4
2005-04-07 07:53:26 51°17.269 2°59.349 69 13.1 65 9.1
2005-04-07 07:53:31 51°17.279 2°59.373 64 13.1 65 9.3
2005-04-07 07:53:36 51°17.286 2°59.396 61.8 13 59 9.3
2005-04-07 07:53:41 51°17.297 2°59.423 64.7 13.2 59 9.2
2005-04-07 07:53:46 51°17.306 2°59.445 60.3 13.4 55 9.2
2005-04-07 07:53:51 51°17.317 2°59.471 59.4 12.9 57 9.4
2005-04-07 07:53:56 51°17.325 2°59.492 58.7 12.7 55 9.4
2005-04-07 07:54:00 51°17.334 2°59.511 58.9 12.8 55 9.4
2005-04-07 07:54:06 51°17.347 2°59.541 57.2 12.8 53 9.3
2005-04-07 07:54:12 51°17.359 2°59.567 57.3 13.4 55 9.2
2005-04-07 07:54:16 51°17.37 2°59.589 55.8 13.4 55 9.3
2005-04-07 07:54:21 51°17.38 2°59.612 54.8 13.1 54 9.3
2005-04-07 07:54:26 51°17.391 2°59.634 56.3 13.1 54 9.3
2005-04-07 07:54:31 51°17.403 2°59.657 55.1 13.1 50 9.3
2005-04-07 07:54:36 51°17.414 2°59.676 52.2 13.1 50 9.3
2005-04-07 07:54:41 51°17.425 2°59.701 51.9 12.8 51 9.3
2005-04-07 07:54:46 51°17.437 2°59.724 55.7 12.8 51 9.2
2005-04-07 07:54:51 51°17.451 2°59.745 53.4 13.6 45 9.2
2005-04-07 07:54:56 51°17.462 2°59.763 47.6 13.6 45 9.4
2005-04-07 07:55:02 51°17.476 2°59.787 50.5 12.6 47 9.3
2005-04-07 07:55:06 51°17.487 2°59.805 49.8 13.1 43 9.2
2005-04-07 07:55:10 51°17.498 2°59.824 48.7 13.1 48 9.1
2005-04-07 07:55:16 51°17.513 2°59.85 49.3 13.1 48 9.3
2005-04-07 07:55:22 51°17.525 2°59.873 49.6 12.7 49 9.4
2005-04-07 07:55:26 51°17.533 2°59.89 51.9 12.5 51 9.4
2005-04-07 07:55:31 51°17.546 2°59.915 54.8 12.5 51 9.3
2005-04-07 07:55:36 51°17.557 2°59.936 54.3 12.5 51 9
2005-04-07 07:55:42 51°17.573 2°59.962 52.2 13.7 49 9.3
2005-04-07 07:55:46 51°17.584 2°59.976 45.1 13.3 37 9.3
2005-04-07 07:55:51 51°17.594 2°59.999 48.3 11.9 54 9.3
2005-04-07 07:55:56 51°17.606 3°0.022 52.8 12.4 50 9.2
2005-04-07 07:56:02 51°17.62 3°0.045 52.9 13.3 48 9.1
2005-04-07 07:56:06 51°17.63 3°0.062 50.8 13.3 46 9.1
2005-04-07 07:56:11 51°17.644 3°0.085 50.6 13.3 46 9
2005-04-07 07:56:15 51°17.655 3°0.102 48.4 13.3 46 9
2005-04-07 07:56:22 51°17.67 3°0.129 49.3 13.3 46 9
2005-04-07 07:56:26 51°17.678 3°0.148 50.7 12.6 47 9
2005-04-07 07:56:32 51°17.693 3°0.174 53.4 13.3 52 8.9
2005-04-07 07:56:36 51°17.701 3°0.191 50.7 13 45 8.9
2005-04-07 07:56:42 51°17.714 3°0.22 55 12.6 52 8.6
2005-04-07 07:56:46 51°17.725 3°0.237 55.7 13.9 48 8.5
2005-04-07 07:56:52 51°17.739 3°0.26 46.4 12.6 41 8.7
2005-04-07 07:56:56 51°17.746 3°0.278 52.2 11.8 57 8.7
2005-04-07 07:57:01 51°17.759 3°0.303 57.3 12.9 52 8.5
2005-04-07 07:57:06 51°17.77 3°0.326 54.6 12.9 52 8.6
2005-04-07 07:57:11 51°17.78 3°0.348 53.7 12.4 54 8.8
2005-04-07 07:57:16 51°17.789 3°0.367 57.1 12.4 54 8.8
2005-04-07 07:57:22 51°17.8 3°0.392 56.8 11.8 52 8.6
2005-04-07 07:57:26 51°17.81 3°0.407 54.7 11.8 52 8.6
2005-04-07 07:57:31 51°17.82 3°0.425 50.2 10.8 44 8.7
2005-04-07 07:57:36 51°17.831 3°0.438 47.9 10.5 48 8.9
2005-04-07 07:57:40 51°17.836 3°0.45 44.5 9.6 47 8.9
2005-04-07 07:57:46 51°17.849 3°0.467 44.9 9.3 43 8.8
2005-04-07 07:57:51 51°17.856 3°0.484 46.3 9 44 8.7
2005-04-07 07:57:56 51°17.862 3°0.497 53.7 9 58 8.7
2005-04-07 07:58:02 51°17.868 3°0.517 54.7 8.4 61 8.6
2005-04-07 07:58:06 51°17.874 3°0.532 62.9 8.4 64 8.6
2005-04-07 07:58:11 51°17.877 3°0.547 63.6 8.3 67 8.8
2005-04-07 07:58:15 51°17.88 3°0.562 69.6 8.1 73 8.8
2005-04-07 07:58:22 51°17.884 3°0.585 72.6 8.3 74 8.8
2005-04-07 07:58:26 51°17.887 3°0.598 74.7 8.3 74 9
2005-04-07 07:58:32 51°17.889 3°0.615 76.8 7.1 75 8.9
2005-04-07 07:58:36 51°17.891 3°0.626 78.3 6.8 76 9
2005-04-07 07:58:41 51°17.891 3°0.64 79.1 6.8 76 8.9
2005-04-07 07:58:46 51°17.891 3°0.651 84.9 6.8 76 8.8
2005-04-07 07:58:51 51°17.891 3°0.663 88.6 6.8 76 8.9
2005-04-07 07:58:56 51°17.89 3°0.672 93.6 4.7 96 9
2005-04-07 07:59:02 51°17.889 3°0.682 98 4.4 97 9
2005-04-07 07:59:06 51°17.888 3°0.689 102.2 4.4 97 8.9
2005-04-07 07:59:10 51°17.886 3°0.694 106.1 3.4 111 8.9
2005-04-07 07:59:16 51°17.884 3°0.701 110.9 3.1 113 9
2005-04-07 07:59:21 51°17.883 3°0.705 116.2 2.5 110 8.9
2005-04-07 07:59:26 51°17.882 3°0.709 121.2 2.5 110 9
2005-04-07 07:59:31 51°17.88 3°0.714 126.1 2.1 118 9
2005-04-07 07:59:36 51°17.879 3°0.716 129.9 2.1 118 8.9
2005-04-07 07:59:41 51°17.878 3°0.72 133.7 1.9 113 9
2005-04-07 07:59:46 51°17.876 3°0.724 136.2 1.9 113 8.8
2005-04-07 07:59:51 51°17.875 3°0.727 137.7 1.8 124 8.9
2005-04-07 07:59:56 51°17.873 3°0.729 140.2 1.8 124 8.9
2005-04-07 08:00:01 51°17.872 3°0.733 141.7 1.8 125 8.9
2005-04-07 08:00:06 51°17.87 3°0.736 143.5 1.8 125 8.9
2005-04-07 08:00:11 51°17.868 3°0.739 144.4 1.8 131 9.1
2005-04-07 08:00:16 51°17.867 3°0.742 146.6 1.8 131 9.2
2005-04-07 08:00:22 51°17.865 3°0.745 148 1.7 136 9
2005-04-07 08:00:26 51°17.863 3°0.748 150.1 1.9 126 8.9
2005-04-07 08:00:32 51°17.862 3°0.752 152.7 1.9 145 8.6
2005-04-07 08:00:36 51°17.859 3°0.753 152.7 2.1 145 8.7
2005-04-07 08:00:41 51°17.857 3°0.757 155.2 2.2 137 8.7
2005-04-07 08:00:46 51°17.854 3°0.76 158.9 2.1 137 9
2005-04-07 08:00:52 51°17.852 3°0.763 161.1 2.1 145 9.2
2005-04-07 08:00:56 51°17.85 3°0.765 162.5 2.1 145 9.2
2005-04-07 08:01:00 51°17.848 3°0.767 165.1 2.1 146 9.5
2005-04-07 08:01:06 51°17.845 3°0.771 168 2.2 138 9.3
2005-04-07 08:01:11 51°17.842 3°0.773 168.5 2.2 138 9.1
2005-04-07 08:01:16 51°17.84 3°0.776 168 2.2 138 8.8
2005-04-07 08:01:22 51°17.838 3°0.779 167.6 2.3 145 8.9
2005-04-07 08:01:26 51°17.835 3°0.781 167.6 2.3 145 9.1
2005-04-07 08:01:31 51°17.832 3°0.783 168.3 2.3 142 9.4
2005-04-07 08:01:36 51°17.83 3°0.786 170.7 2.4 143 9.4
2005-04-07 08:01:41 51°17.827 3°0.789 172 2.3 149 9.6
2005-04-07 08:01:46 51°17.824 3°0.79 172.8 2.3 148 9.5
2005-04-07 08:01:51 51°17.821 3°0.793 174.5 2.3 155 9.4
2005-04-07 08:01:56 51°17.818 3°0.795 176.3 2.3 155 9.3
2005-04-07 08:02:02 51°17.814 3°0.798 177.9 2.5 153 9.1
2005-04-07 08:02:06 51°17.811 3°0.798 179.2 2.6 155 9.1
2005-04-07 08:02:11 51°17.808 3°0.8 181.8 2.4 167 9.1
2005-04-07 08:02:16 51°17.805 3°0.8 182.7 2.3 167 9.4
2005-04-07 08:02:22 51°17.802 3°0.802 183.6 2.4 162 9.7
2005-04-07 08:02:26 51°17.799 3°0.804 186 2.4 162 9.6
2005-04-07 08:02:31 51°17.796 3°0.805 186.8 2 170 9.5
2005-04-07 08:02:36 51°17.794 3°0.806 187.6 2.2 165 9.2
2005-04-07 08:02:42 51°17.79 3°0.807 187.8 2.5 149 8.7
2005-04-07 08:02:46 51°17.788 3°0.809 187.9 2.5 149 8.7
2005-04-07 08:02:51 51°17.785 3°0.81 189.4 1.9 177 8.5
2005-04-07 08:02:56 51°17.782 3°0.81 192.1 1.9 177 8.9
2005-04-07 08:03:02 51°17.779 3°0.811 194.3 2.2 163 9.5
2005-04-07 08:03:06 51°17.776 3°0.812 195 2.2 163 9.7
2005-04-07 08:03:12 51°17.773 3°0.813 196.4 2.2 163 9.8
2005-04-07 08:03:16 51°17.77 3°0.813 198.4 2 174 10
2005-04-07 08:03:22 51°17.767 3°0.812 199.4 2 181 10.2
2005-04-07 08:03:26 51°17.765 3°0.813 201.7 2.1 182 10.2
2005-04-07 08:03:32 51°17.761 3°0.813 203.4 2.1 186 10
2005-04-07 08:03:36 51°17.76 3°0.812 205 2.2 176 9.9
2005-04-07 08:03:41 51°17.757 3°0.811 206.4 2.2 176 9.8
2005-04-07 08:03:46 51°17.754 3°0.81 208.6 2 197 9.7
2005-04-07 08:03:52 51°17.751 3°0.809 210.6 2.2 188 9.7
2005-04-07 08:03:56 51°17.749 3°0.808 212.7 2 199 9.6
2005-04-07 08:04:02 51°17.746 3°0.806 214.1 2.1 200 9.6
2005-04-07 08:04:06 51°17.743 3°0.804 216.8 2.1 197 9.9
2005-04-07 08:04:10 51°17.741 3°0.804 219.6 2.2 195 9.8
2005-04-07 08:04:15 51°17.739 3°0.802 222.2 1.9 201 9.5
2005-04-07 08:04:21 51°17.736 3°0.8 224 1.8 204 9.6
2005-04-07 08:04:26 51°17.734 3°0.798 226.1 1.8 204 9.5
2005-04-07 08:04:31 51°17.732 3°0.796 228 1.8 207 9.6
2005-04-07 08:04:35 51°17.73 3°0.794 230 1.8 203 9.8
2005-04-07 08:04:42 51°17.728 3°0.792 231.9 1.6 217 9.8
2005-04-07 08:04:46 51°17.726 3°0.79 234.3 1.6 217 9.8
2005-04-07 08:04:51 51°17.725 3°0.788 236.2 1.5 217 9.8
2005-04-07 08:04:56 51°17.723 3°0.786 239 1.5 228 9.7
2005-04-07 08:05:02 51°17.722 3°0.783 241.9 1.5 228 9.7
2005-04-07 08:05:06 51°17.721 3°0.782 243.6 1.4 228 9.6
2005-04-07 08:05:11 51°17.719 3°0.779 245.3 1.3 226 9.7
2005-04-07 08:05:16 51°17.719 3°0.777 247.8 1.3 226 9.8
2005-04-07 08:05:22 51°17.718 3°0.774 250.5 1.3 240 9.9
2005-04-07 08:05:26 51°17.717 3°0.772 254.1 1 247 9.7
2005-04-07 08:05:32 51°17.717 3°0.77 256.5 1.1 254 9.6
2005-04-07 08:05:36 51°17.717 3°0.768 260.5 1 266 9.6
2005-04-07 08:05:42 51°17.717 3°0.766 263.8 1 269 9.6
2005-04-07 08:05:46 51°17.718 3°0.764 269.7 1.1 287 9.6
2005-04-07 08:05:51 51°17.719 3°0.762 275.3 1.2 301 9.7
2005-04-07 08:05:56 51°17.72 3°0.76 281.3 1.2 301 9.7
2005-04-07 08:06:02 51°17.722 3°0.757 287.5 1.3 317 9.8
2005-04-07 08:06:06 51°17.723 3°0.756 293 1.3 326 9.7
2005-04-07 08:06:12 51°17.725 3°0.755 299.8 1.6 337 9.9
2005-04-07 08:06:16 51°17.727 3°0.755 305.5 1.6 337 9.8
2005-04-07 08:06:22 51°17.729 3°0.754 311.3 1.6 337 9.4
2005-04-07 08:06:26 51°17.731 3°0.754 318.3 1.6 337 9.3
2005-04-07 08:06:32 51°17.734 3°0.753 323.5 1.7 348 9
2005-04-07 08:06:36 51°17.736 3°0.753 327 1.9 347 9.2
2005-04-07 08:06:42 51°17.74 3°0.752 329.6 1.8 350 9.2
2005-04-07 08:06:46 51°17.742 3°0.751 331.6 1.8 350 9.3
2005-04-07 08:06:51 51°17.745 3°0.752 331.4 1.8 350 9.6
2005-04-07 08:06:56 51°17.747 3°0.752 330.5 1.8 350 9.4
2005-04-07 08:07:02 51°17.749 3°0.752 331.5 1.6 359 9.2
2005-04-07 08:07:06 51°17.751 3°0.752 332.3 1.6 359 9.4
2005-04-07 08:07:11 51°17.753 3°0.752 331.2 1.6 8 9.2
2005-04-07 08:07:15 51°17.755 3°0.752 329.9 1.3 358 9.2
2005-04-07 08:07:22 51°17.757 3°0.752 329.4 1.3 358 9.5
2005-04-07 08:07:26 51°17.759 3°0.753 329.4 1.5 16 9.7
2005-04-07 08:07:31 51°17.76 3°0.754 328.2 0.9 11 9.4
2005-04-07 08:07:36 51°17.762 3°0.754 326.8 1.2 16 9.4
2005-04-07 08:07:42 51°17.763 3°0.755 327.8 1.1 19 9.4
2005-04-07 08:07:46 51°17.765 3°0.756 328 1.1 19 9.7
2005-04-07 08:07:51 51°17.766 3°0.757 329.1 1.4 25 9.9
2005-04-07 08:07:56 51°17.768 3°0.758 330 1.1 24 9.7
2005-04-07 08:08:02 51°17.769 3°0.759 331.3 1 22 9.7
2005-04-07 08:08:06 51°17.771 3°0.76 332.2 1 28 9.9
2005-04-07 08:08:11 51°17.772 3°0.761 331.9 1 32 9.7
2005-04-07 08:08:16 51°17.773 3°0.762 331.4 1 32 9.6
2005-04-07 08:08:20 51°17.774 3°0.763 332 1.3 34 9.5
2005-04-07 08:08:26 51°17.776 3°0.765 333.3 1.3 34 9.8
2005-04-07 08:08:32 51°17.777 3°0.766 331.9 0.9 40 9.6
2005-04-07 08:08:35 51°17.778 3°0.767 331.7 0.9 40 9.5
2005-04-07 08:08:41 51°17.779 3°0.768 331.5 0.8 29 9.4
2005-04-07 08:08:46 51°17.78 3°0.769 331.9 1 29 9.3
2005-04-07 08:08:51 51°17.781 3°0.77 332.3 0.9 28 9.5
2005-04-07 08:08:56 51°17.782 3°0.771 332.2 0.9 28 9.6
2005-04-07 08:09:02 51°17.784 3°0.773 331.3 1.1 41 9.5
2005-04-07 08:09:06 51°17.785 3°0.774 331.2 1.1 41 9.6
2005-04-07 08:09:11 51°17.786 3°0.775 331.6 1 39 9.7
2005-04-07 08:09:16 51°17.787 3°0.777 331.9 1 39 9.8
2005-04-07 08:09:22 51°17.788 3°0.778 332 1 48 9.7
2005-04-07 08:09:26 51°17.789 3°0.78 332.3 0.8 41 9.6
2005-04-07 08:09:31 51°17.79 3°0.781 333 0.8 41 9.7
2005-04-07 08:09:36 51°17.79 3°0.783 332.9 1.2 39 9.8
2005-04-07 08:09:42 51°17.792 3°0.785 331.9 1.2 39 9.6
2005-04-07 08:09:46 51°17.793 3°0.786 331.5 0.9 48 9.4
2005-04-07 08:09:51 51°17.794 3°0.788 331.7 0.9 40 9.4
2005-04-07 08:09:56 51°17.794 3°0.789 331 0.9 41 9.4
2005-04-07 08:10:02 51°17.796 3°0.792 332.1 0.9 41 9.5
2005-04-07 08:10:06 51°17.796 3°0.793 332.4 0.9 41 9.3
2005-04-07 08:10:11 51°17.797 3°0.794 332.5 1.2 54 9.2
2005-04-07 08:10:16 51°17.798 3°0.796 332.2 0.6 71 9.3
2005-04-07 08:10:22 51°17.799 3°0.799 330.3 1.1 53 9.4
2005-04-07 08:10:26 51°17.799 3°0.8 329.5 1.1 53 9.2
2005-04-07 08:10:32 51°17.8 3°0.802 329.5 1 64 9.2
2005-04-07 08:10:36 51°17.801 3°0.803 331.3 0.9 59 9.6
2005-04-07 08:10:42 51°17.802 3°0.805 331.6 0.9 59 9.8
2005-04-07 08:10:46 51°17.802 3°0.807 331.7 0.9 59 9.7
2005-04-07 08:10:52 51°17.803 3°0.809 333.2 0.9 59 9.8
2005-04-07 08:10:56 51°17.803 3°0.811 334.5 1.2 57 9.8
2005-04-07 08:11:02 51°17.804 3°0.813 335 1.2 57 9.8
2005-04-07 08:11:06 51°17.805 3°0.815 334.5 1.2 57 9.6
2005-04-07 08:11:12 51°17.805 3°0.817 335.3 1.2 57 9.4
2005-04-07 08:11:16 51°17.806 3°0.818 336.6 1.2 56 9.7
2005-04-07 08:11:21 51°17.807 3°0.821 337.3 1.2 65 9.7
2005-04-07 08:11:26 51°17.808 3°0.823 336.8 0.9 68 9.6
2005-04-07 08:11:32 51°17.808 3°0.825 337.2 0.9 68 9.3
2005-04-07 08:11:36 51°17.809 3°0.827 339.9 1.4 65 9.5
2005-04-07 08:11:42 51°17.81 3°0.831 340.8 1.4 65 9.5
2005-04-07 08:11:46 51°17.811 3°0.835 339.4 1.4 65 8.5
2005-04-07 08:11:51 51°17.811 3°0.835 339.3 1.4 65 7.9
2005-04-07 08:11:55 51°17.811 3°0.839 342.5 1.3 68 8.1
2005-04-07 08:12:01 51°17.812 3°0.84 341.6 1.2 62 8.7
2005-04-07 08:12:06 51°17.813 3°0.844 341.8 1.3 69 9.2
2005-04-07 08:12:11 51°17.813 3°0.846 341.8 1 65 9.6
2005-04-07 08:12:16 51°17.813 3°0.848 342.6 1 65 10
2005-04-07 08:12:22 51°17.814 3°0.851 342.8 1.2 68 10.2
2005-04-07 08:12:26 51°17.815 3°0.853 343 1.2 68 10.2
2005-04-07 08:12:32 51°17.815 3°0.855 343.3 1.5 68 10.3
2005-04-07 08:12:36 51°17.816 3°0.858 344.7 1.4 72 10.4
2005-04-07 08:12:42 51°17.816 3°0.861 345 1.1 75 10.1
2005-04-07 08:12:46 51°17.816 3°0.863 344.5 0.8 73 9.6
2005-04-07 08:12:51 51°17.817 3°0.864 345.3 1.1 71 9.7
2005-04-07 08:12:56 51°17.818 3°0.868 347.2 1.2 77 9.8
2005-04-07 08:13:02 51°17.818 3°0.87 346.3 1 75 9.5
2005-04-07 08:13:06 51°17.818 3°0.872 346.2 1 75 9.4
2005-04-07 08:13:12 51°17.819 3°0.875 347 1.1 78 9.6
2005-04-07 08:13:16 51°17.819 3°0.876 347 1.2 76 9.7
2005-04-07 08:13:22 51°17.819 3°0.879 347.6 1.2 78 9.7
2005-04-07 08:13:26 51°17.82 3°0.882 348.3 0.9 82 9.7
2005-04-07 08:13:31 51°17.82 3°0.884 347.9 1.2 74 9.9
2005-04-07 08:13:36 51°17.82 3°0.887 348.1 1.2 74 9.7
2005-04-07 08:13:42 51°17.821 3°0.89 348.6 1.2 74 9.8
2005-04-07 08:13:46 51°17.821 3°0.891 349.6 1.3 78 9.9
2005-04-07 08:13:51 51°17.821 3°0.896 350.1 1.3 78 9.7
2005-04-07 08:13:56 51°17.821 3°0.9 350.5 1 88 8.5
2005-04-07 08:14:02 51°17.822 3°0.902 352.5 2 85 8
2005-04-07 08:14:06 51°17.822 3°0.904 354 1.1 84 8.4
2005-04-07 08:14:12 51°17.822 3°0.906 354.2 1.1 84 9
2005-04-07 08:14:16 51°17.822 3°0.909 354.4 1 88 9.6
2005-04-07 08:14:22 51°17.822 3°0.911 354.1 1 85 10.1
2005-04-07 08:14:26 51°17.822 3°0.912 353.8 1.1 83 10.4
2005-04-07 08:14:31 51°17.822 3°0.915 353.4 1.3 81 10.4
2005-04-07 08:14:36 51°17.822 3°0.917 353.4 1.3 81 10.3
2005-04-07 08:14:41 51°17.823 3°0.919 353.1 0.9 75 10.4
2005-04-07 08:14:46 51°17.823 3°0.922 352.1 0.9 75 10.2
2005-04-07 08:14:52 51°17.823 3°0.925 352 0.9 75 9.8
2005-04-07 08:14:56 51°17.824 3°0.926 350.7 1.2 81 9.6
2005-04-07 08:15:02 51°17.824 3°0.929 349.9 0.9 77 9.7
2005-04-07 08:15:06 51°17.825 3°0.932 349.8 1.1 75 9.6
2005-04-07 08:15:12 51°17.825 3°0.935 349.5 0.9 86 9.6
2005-04-07 08:15:16 51°17.825 3°0.935 349.8 0.9 86 9.5
2005-04-07 08:15:21 51°17.826 3°0.939 350.6 0.9 86 9.6
2005-04-07 08:15:26 51°17.826 3°0.941 349.8 0.9 86 9.8
2005-04-07 08:15:32 51°17.826 3°0.944 348.3 0.9 86 9.6
2005-04-07 08:15:36 51°17.826 3°0.945 348.8 1.3 77 9.8
2005-04-07 08:15:41 51°17.827 3°0.948 349.2 1.2 80 9.9
2005-04-07 08:15:46 51°17.828 3°0.951 348.2 1.2 80 9.8
2005-04-07 08:15:50 51°17.828 3°0.953 347.4 1.2 75 9.5
2005-04-07 08:15:57 51°17.828 3°0.956 347.6 1.2 72 9.2
2005-04-07 08:16:01 51°17.829 3°0.959 348.3 1.2 77 9.2
2005-04-07 08:16:06 51°17.829 3°0.961 347.9 0.8 72 9.3
2005-04-07 08:16:11 51°17.829 3°0.963 347.9 0.8 72 9.5
2005-04-07 08:16:16 51°17.83 3°0.965 348.9 1.3 76 9.8
2005-04-07 08:16:21 51°17.83 3°0.968 348.6 1.2 79 9.9
2005-04-07 08:16:27 51°17.831 3°0.971 348.3 0.7 73 9.6
2005-04-07 08:16:31 51°17.831 3°0.972 349.5 1.3 68 9.4
2005-04-07 08:16:35 51°17.831 3°0.974 351.2 1.4 68 9.5
2005-04-07 08:16:42 51°17.832 3°0.977 351.6 1.6 72 9.7
2005-04-07 08:16:46 51°17.832 3°0.979 349.8 0.6 82 9.5
2005-04-07 08:16:52 51°17.832 3°0.982 349.4 1.2 75 9.5
2005-04-07 08:16:56 51°17.833 3°0.983 349.9 1.5 74 9.9
2005-04-07 08:17:00 51°17.833 3°0.985 350.3 1.4 77 9.8
2005-04-07 08:17:06 51°17.833 3°0.988 349.8 0.9 76 9.9
2005-04-07 08:17:12 51°17.834 3°0.991 349.2 1.3 76 10.2
2005-04-07 08:17:16 51°17.834 3°0.993 349.5 1.3 76 10.2
2005-04-07 08:17:21 51°17.835 3°0.995 349.6 1.3 76 10.2
2005-04-07 08:17:26 51°17.835 3°0.997 349.6 1.1 75 10.1
2005-04-07 08:17:32 51°17.836 3°1 349.6 0.9 75 9.9
2005-04-07 08:17:36 51°17.836 3°1.002 350.2 0.9 75 10
2005-04-07 08:17:42 51°17.836 3°1.004 350.2 0.9 75 10
2005-04-07 08:17:46 51°17.837 3°1.006 349.1 1 66 9.9
2005-04-07 08:17:50 51°17.837 3°1.008 348.5 1.1 69 9.7
2005-04-07 08:17:57 51°17.838 3°1.01 348.6 1.1 69 9.9
2005-04-07 08:18:01 51°17.839 3°1.013 347.8 1.4 71 9.9
2005-04-07 08:18:06 51°17.839 3°1.016 347.2 0.8 73 9.7
2005-04-07 08:18:11 51°17.84 3°1.017 346.6 0.8 73 9.3
2005-04-07 08:18:17 51°17.84 3°1.02 346.8 1 67 9.3
2005-04-07 08:18:22 51°17.841 3°1.023 346.9 0.9 64 9.5
2005-04-07 08:18:26 51°17.841 3°1.023 345.6 1.3 67 9.6
2005-04-07 08:18:32 51°17.842 3°1.025 346.2 1.6 69 9.9
2005-04-07 08:18:36 51°17.843 3°1.029 345.7 0.9 81 9.5
2005-04-07 08:18:42 51°17.843 3°1.031 344.9 1.1 67 9.1
2005-04-07 08:18:46 51°17.844 3°1.033 346.2 0.9 64 9
2005-04-07 08:18:51 51°17.844 3°1.035 345.1 0.9 61 9.2
2005-04-07 08:18:57 51°17.845 3°1.037 343.8 0.9 61 9.6
2005-04-07 08:19:02 51°17.845 3°1.039 344 0.9 61 9.8
2005-04-07 08:19:07 51°17.846 3°1.042 343.9 1 65 9.9
2005-04-07 08:19:12 51°17.847 3°1.044 343.5 1.2 67 10
2005-04-07 08:19:17 51°17.847 3°1.046 344.1 1.2 67 10.3
2005-04-07 08:19:22 51°17.848 3°1.049 343.3 1.2 67 10
2005-04-07 08:19:26 51°17.848 3°1.05 343.9 1.2 67 10
2005-04-07 08:19:32 51°17.849 3°1.053 344.4 1 66 9.8
2005-04-07 08:19:36 51°17.85 3°1.054 344 1.2 66 9.9
2005-04-07 08:19:41 51°17.85 3°1.057 343.7 1.5 65 10
2005-04-07 08:19:46 51°17.851 3°1.06 344 1.5 65 9.8
2005-04-07 08:19:52 51°17.851 3°1.062 343.1 1.5 65 9.5
2005-04-07 08:19:56 51°17.852 3°1.064 343.6 0.9 70 9.6
2005-04-07 08:20:01 51°17.852 3°1.066 343.5 0.8 71 9.6
2005-04-07 08:20:06 51°17.853 3°1.068 343.4 1.2 63 9.5
2005-04-07 08:20:12 51°17.853 3°1.07 344.5 1.1 64 9.4
2005-04-07 08:20:16 51°17.854 3°1.071 344.9 0.9 67 9.5
2005-04-07 08:20:22 51°17.854 3°1.073 343.6 1.2 67 9.7
2005-04-07 08:20:26 51°17.855 3°1.076 342.9 0.8 75 9.6
2005-04-07 08:20:32 51°17.855 3°1.078 343.2 0.8 75 9.4
2005-04-07 08:20:36 51°17.856 3°1.08 343 0.8 75 9.3
2005-04-07 08:20:42 51°17.857 3°1.082 343 1 74 9.3
2005-04-07 08:20:46 51°17.857 3°1.084 343.3 0.8 65 9.1
2005-04-07 08:20:50 51°17.857 3°1.085 342 0.9 69 9.4
2005-04-07 08:20:55 51°17.858 3°1.088 341.8 1.2 69 9.7
2005-04-07 08:21:01 51°17.859 3°1.09 340.6 0.8 71 10
2005-04-07 08:21:06 51°17.859 3°1.091 339.6 0.8 71 10.3
2005-04-07 08:21:11 51°17.86 3°1.095 340.6 0.9 58 10.3
2005-04-07 08:21:16 51°17.86 3°1.097 340.6 0.8 70 9.8
2005-04-07 08:21:21 51°17.861 3°1.098 340.4 0.8 65 9.5
2005-04-07 08:21:26 51°17.862 3°1.101 342.1 1.2 65 9.6
2005-04-07 08:21:32 51°17.862 3°1.104 341.8 1.2 65 9.6
2005-04-07 08:21:36 51°17.862 3°1.104 340.3 1.2 65 9.5
2005-04-07 08:21:41 51°17.863 3°1.108 341.9 1.3 67 9.5
2005-04-07 08:21:46 51°17.864 3°1.11 341.3 0.8 66 9.7
2005-04-07 08:21:52 51°17.865 3°1.113 341.4 0.8 66 9.8
2005-04-07 08:21:56 51°17.865 3°1.115 342.1 0.8 66 9.7
2005-04-07 08:22:01 51°17.866 3°1.117 343.8 1 67 9.9
2005-04-07 08:22:06 51°17.866 3°1.119 343.7 1 67 10.1
2005-04-07 08:22:11 51°17.867 3°1.121 344 1.2 70 10.3
2005-04-07 08:22:16 51°17.867 3°1.123 344.6 1.1 65 10.2
2005-04-07 08:22:21 51°17.868 3°1.125 344 1.2 65 10.2
2005-04-07 08:22:26 51°17.869 3°1.128 344.5 1.5 70 10.2
2005-04-07 08:22:30 51°17.869 3°1.131 343.9 1.2 62 10
2005-04-07 08:22:36 51°17.87 3°1.133 343.3 1.4 68 9.5
2005-04-07 08:22:42 51°17.87 3°1.135 343.2 1.1 70 9.2
2005-04-07 08:22:46 51°17.871 3°1.138 345.1 1.1 66 9.4
2005-04-07 08:22:51 51°17.871 3°1.139 344.7 1.1 71 9.7
2005-04-07 08:22:56 51°17.871 3°1.141 344.4 1.2 69 10
2005-04-07 08:23:02 51°17.872 3°1.144 344.5 1.1 70 10
2005-04-07 08:23:07 51°17.873 3°1.147 344.7 1.1 70 10
2005-04-07 08:23:11 51°17.873 3°1.148 345.1 1.1 63 10
2005-04-07 08:23:16 51°17.874 3°1.149 345 1.1 68 10
2005-04-07 08:23:21 51°17.875 3°1.152 344.6 1.3 70 10
2005-04-07 08:23:27 51°17.875 3°1.155 344.2 1 66 9.9
2005-04-07 08:23:31 51°17.876 3°1.157 344.7 0.9 68 9.6
2005-04-07 08:23:36 51°17.876 3°1.159 345.7 1.4 70 9.6
2005-04-07 08:23:42 51°17.877 3°1.161 346.2 1.2 68 9.8
2005-04-07 08:23:46 51°17.878 3°1.164 346.6 1.4 70 10.1
2005-04-07 08:23:52 51°17.878 3°1.166 345.4 1.2 63 9.7
2005-04-07 08:23:56 51°17.879 3°1.168 346.2 1.1 66 9.7
2005-04-07 08:24:01 51°17.88 3°1.171 345.8 1.1 63 9.6
2005-04-07 08:24:06 51°17.88 3°1.173 345.4 1.1 63 9.7
2005-04-07 08:24:12 51°17.881 3°1.177 345.1 1.1 63 9.7
2005-04-07 08:24:16 51°17.882 3°1.178 345.2 1.1 65 9.9
2005-04-07 08:24:22 51°17.882 3°1.18 345.6 1.1 65 10.1
2005-04-07 08:24:26 51°17.883 3°1.183 345 1.1 65 9.9
2005-04-07 08:24:31 51°17.884 3°1.186 344.9 1.1 67 9.6
2005-04-07 08:24:37 51°17.885 3°1.188 345.9 1.3 64 9.7
2005-04-07 08:24:42 51°17.885 3°1.191 346.4 1.4 66 9.9
2005-04-07 08:24:46 51°17.886 3°1.192 346.1 1.3 63 9.9
2005-04-07 08:24:51 51°17.886 3°1.194 346.1 1.5 66 9.8
2005-04-07 08:24:56 51°17.887 3°1.197 346.8 1.4 67 9.8
2005-04-07 08:25:02 51°17.888 3°1.201 346.8 1.5 66 9.8
2005-04-07 08:25:06 51°17.888 3°1.202 346.1 1.5 66 9.7
2005-04-07 08:25:12 51°17.889 3°1.204 346 1.4 62 9.9
2005-04-07 08:25:16 51°17.89 3°1.208 346.4 1.4 67 10.1
2005-04-07 08:25:21 51°17.891 3°1.21 345.8 1 66 9.9
2005-04-07 08:25:26 51°17.892 3°1.212 345.2 1.3 65 9.8
2005-04-07 08:25:31 51°17.892 3°1.214 345 1.1 60 9.8
2005-04-07 08:25:36 51°17.893 3°1.216 344.7 1.1 60 9.8
2005-04-07 08:25:42 51°17.894 3°1.219 344.2 1.5 58 9.8
2005-04-07 08:25:46 51°17.895 3°1.222 345.1 1.7 64 9.9
2005-04-07 08:25:52 51°17.896 3°1.225 344.2 0.7 62 10
2005-04-07 08:25:56 51°17.896 3°1.227 343 1.2 61 9.6
2005-04-07 08:26:01 51°17.897 3°1.229 343.3 1.2 60 9.4
2005-04-07 08:26:06 51°17.898 3°1.232 344.1 1.7 61 9.7
2005-04-07 08:26:12 51°17.899 3°1.235 344.2 1.2 63 9.6
2005-04-07 08:26:16 51°17.9 3°1.236 342.7 1.5 67 9.8
2005-04-07 08:26:22 51°17.901 3°1.239 342.6 1.5 67 10
2005-04-07 08:26:26 51°17.902 3°1.243 342.8 1.2 56 9.8
2005-04-07 08:26:32 51°17.903 3°1.245 342.7 1.6 62 9.7
2005-04-07 08:26:35 51°17.903 3°1.247 343.4 1.2 59 9.8
2005-04-07 08:26:41 51°17.904 3°1.25 344 1.2 59 9.9
2005-04-07 08:26:46 51°17.905 3°1.251 343.2 1.2 59 9.7
2005-04-07 08:26:51 51°17.906 3°1.254 343.6 1.4 60 9.8
2005-04-07 08:26:56 51°17.907 3°1.256 344.7 1.1 58 10
2005-04-07 08:27:01 51°17.908 3°1.258 343.4 1.1 58 10
2005-04-07 08:27:06 51°17.909 3°1.261 343.7 1.1 58 10
2005-04-07 08:27:11 51°17.91 3°1.263 343.2 1.2 61 10
2005-04-07 08:27:16 51°17.91 3°1.265 342.1 1.2 61 9.9
2005-04-07 08:27:21 51°17.912 3°1.268 342.5 1.1 54 9.9
2005-04-07 08:27:26 51°17.913 3°1.271 343.1 1.2 57 9.9
2005-04-07 08:27:31 51°17.914 3°1.273 342.7 1.3 55 9.8
2005-04-07 08:27:36 51°17.915 3°1.276 343.3 1.2 55 9.7
2005-04-07 08:27:42 51°17.916 3°1.279 343.3 1.2 55 9.6
2005-04-07 08:27:46 51°17.916 3°1.28 343.2 1.2 55 9.6
2005-04-07 08:27:51 51°17.917 3°1.283 343.5 1.4 54 9.6
2005-04-07 08:27:56 51°17.918 3°1.286 343.5 1.1 61 9.7
2005-04-07 08:28:01 51°17.919 3°1.288 342.8 1.3 60 9.9
2005-04-07 08:28:06 51°17.921 3°1.29 342.5 1.4 61 10
2005-04-07 08:28:11 51°17.921 3°1.293 342.7 1.1 55 9.9
2005-04-07 08:28:16 51°17.922 3°1.295 342 1.6 60 9.9
2005-04-07 08:28:21 51°17.924 3°1.298 342.3 1.6 61 9.8
2005-04-07 08:28:26 51°17.925 3°1.301 342.3 1.6 61 9.8
2005-04-07 08:28:32 51°17.925 3°1.303 341.6 1.6 61 9.5
2005-04-07 08:28:36 51°17.926 3°1.305 343.4 1.5 57 9.4
2005-04-07 08:28:42 51°17.927 3°1.308 344 1 56 9.4
2005-04-07 08:28:46 51°17.928 3°1.31 342.6 1 56 9.2
2005-04-07 08:28:51 51°17.929 3°1.312 343 1 56 9.5
2005-04-07 08:28:56 51°17.93 3°1.314 343.7 1 56 9.7
2005-04-07 08:29:01 51°17.931 3°1.317 342.5 1.4 57 9.9
2005-04-07 08:29:06 51°17.932 3°1.32 342.1 1.6 61 10.1
2005-04-07 08:29:12 51°17.933 3°1.323 343.2 1.6 61 9.9
2005-04-07 08:29:16 51°17.934 3°1.325 343.3 1 56 9.7
2005-04-07 08:29:22 51°17.935 3°1.327 343.1 1 56 9.8
2005-04-07 08:29:26 51°17.936 3°1.329 343.6 1.6 62 10.1
2005-04-07 08:29:32 51°17.937 3°1.333 343.1 1.1 66 10.1
2005-04-07 08:29:36 51°17.938 3°1.334 341.8 1.4 57 9.8
2005-04-07 08:29:42 51°17.938 3°1.337 341.3 1.6 62 9.7
2005-04-07 08:29:46 51°17.939 3°1.34 342.1 1.6 62 9.8
2005-04-07 08:29:51 51°17.94 3°1.343 341.5 1.4 62 9.8
2005-04-07 08:29:56 51°17.941 3°1.345 339.4 1.6 64 9.8
2005-04-07 08:30:01 51°17.942 3°1.347 339.2 1.6 61 9.9
2005-04-07 08:30:06 51°17.943 3°1.35 338.9 1.1 58 9.9
2005-04-07 08:30:11 51°17.944 3°1.353 338.2 1.2 64 9.5
2005-04-07 08:30:16 51°17.945 3°1.354 339 1.8 63 9.4
2005-04-07 08:30:21 51°17.946 3°1.358 340.3 0.9 67 9.2
2005-04-07 08:30:26 51°17.947 3°1.361 341.1 1.5 64 9.2
2005-04-07 08:30:32 51°17.948 3°1.365 339.7 1 61 9.2
2005-04-07 08:30:36 51°17.949 3°1.367 339.9 1.6 62 9.1
2005-04-07 08:30:42 51°17.949 3°1.37 340.5 1.3 70 9
2005-04-07 08:30:46 51°17.95 3°1.373 341.2 1.4 65 9.1
2005-04-07 08:30:51 51°17.951 3°1.375 341.2 1.5 65 9.4
2005-04-07 08:30:56 51°17.952 3°1.378 341 1.5 67 9.5
2005-04-07 08:31:02 51°17.953 3°1.381 341 1.5 59 9.8
2005-04-07 08:31:06 51°17.953 3°1.384 341.1 1.6 62 9.7
2005-04-07 08:31:12 51°17.954 3°1.387 341.7 1.6 62 9.8
2005-04-07 08:31:16 51°17.955 3°1.39 343.4 1.2 68 10
2005-04-07 08:31:22 51°17.956 3°1.394 344 1.7 65 10.1
2005-04-07 08:31:26 51°17.956 3°1.396 343 1.7 65 9.8
2005-04-07 08:31:31 51°17.957 3°1.398 344.2 1.7 68 9.8
2005-04-07 08:31:36 51°17.958 3°1.401 344.6 1.1 68 9.9
2005-04-07 08:31:42 51°17.959 3°1.405 343.8 1.4 67 9.9
2005-04-07 08:31:46 51°17.959 3°1.407 344 1.4 66 9.9
2005-04-07 08:31:51 51°17.96 3°1.41 344.2 1.5 66 9.9
2005-04-07 08:31:56 51°17.961 3°1.413 344.5 1.6 73 10.1
2005-04-07 08:32:02 51°17.962 3°1.416 344.6 1.7 67 9.9
2005-04-07 08:32:06 51°17.963 3°1.419 344.7 1.8 69 10
2005-04-07 08:32:12 51°17.964 3°1.424 345.6 1 59 9.7
2005-04-07 08:32:16 51°17.964 3°1.425 345.4 1 59 9.4
2005-04-07 08:32:22 51°17.965 3°1.429 346.8 1 59 9.5
2005-04-07 08:32:26 51°17.966 3°1.431 347.1 1.4 65 9.4
2005-04-07 08:32:31 51°17.966 3°1.434 346.2 1.4 68 9.4
2005-04-07 08:32:36 51°17.967 3°1.436 347 1.3 67 9.7
2005-04-07 08:32:42 51°17.968 3°1.44 346.5 1.6 63 9.9
2005-04-07 08:32:46 51°17.969 3°1.443 345.8 1.3 63 9.8
2005-04-07 08:32:52 51°17.97 3°1.446 346.2 1.3 63 9.6
2005-04-07 08:32:56 51°17.971 3°1.449 347.9 1.4 66 9.7
2005-04-07 08:33:02 51°17.972 3°1.452 348.3 1.2 58 9.6
2005-04-07 08:33:06 51°17.973 3°1.454 347.7 1.8 55 9.8
2005-04-07 08:33:11 51°17.976 3°1.457 349.3 1.5 36 9.9
2005-04-07 08:33:16 51°17.978 3°1.458 349.7 1.9 39 10.1
2005-04-07 08:33:21 51°17.981 3°1.461 349.9 2.5 36 10.3
2005-04-07 08:33:26 51°17.984 3°1.464 350.6 2.5 36 9.8
2005-04-07 08:33:31 51°17.988 3°1.465 351.2 2.5 36 9.5
2005-04-07 08:33:36 51°17.993 3°1.466 353.2 2.5 36 9.3
2005-04-07 08:33:41 51°17.998 3°1.467 354.3 3.4 2 9.4
2005-04-07 08:33:46 51°18.003 3°1.468 355.2 3.4 2 9.5
2005-04-07 08:33:52 51°18.01 3°1.469 356.3 4 3 9.8
2005-04-07 08:33:57 51°18.017 3°1.47 357.3 4.4 7 9.9
2005-04-07 08:34:01 51°18.023 3°1.471 359 4.8 5 9.9
2005-04-07 08:34:06 51°18.03 3°1.473 -999 4.9 8 9.9
2005-04-07 08:34:12 51°18.037 3°1.476 1.3 5.2 8 9.8
2005-04-07 08:34:16 51°18.043 3°1.477 3.1 5.2 8 9.8
2005-04-07 08:34:22 51°18.052 3°1.479 2.8 5 8 9.7
2005-04-07 08:34:26 51°18.058 3°1.48 3.8 5.2 13 9.8
2005-04-07 08:34:31 51°18.065 3°1.484 5.8 5.2 13 10
2005-04-07 08:34:36 51°18.071 3°1.487 7.9 5.1 11 9.8
2005-04-07 08:34:41 51°18.078 3°1.491 12.4 5.2 24 9.8
2005-04-07 08:34:46 51°18.085 3°1.497 15.9 5.2 24 9.8
2005-04-07 08:34:50 51°18.09 3°1.501 20 5.2 24 9.7
2005-04-07 08:34:57 51°18.098 3°1.511 25.2 5.2 24 9.5
2005-04-07 08:35:02 51°18.105 3°1.516 29.5 5.4 42 9.6
2005-04-07 08:35:06 51°18.11 3°1.523 29 5.4 42 9.5
2005-04-07 08:35:12 51°18.116 3°1.532 33.5 5.5 39 9.1
2005-04-07 08:35:16 51°18.121 3°1.537 38.5 5.6 44 9.4
2005-04-07 08:35:21 51°18.127 3°1.546 39.4 5.6 44 9.8
2005-04-07 08:35:26 51°18.134 3°1.555 39.1 5.8 38 9.8
2005-04-07 08:35:31 51°18.14 3°1.563 39.6 5.7 41 10
2005-04-07 08:35:36 51°18.146 3°1.57 39.9 5.7 41 10.1
2005-04-07 08:35:42 51°18.153 3°1.58 38.3 5.8 37 10.2
2005-04-07 08:35:46 51°18.158 3°1.588 38.1 5.7 38 10
2005-04-07 08:35:52 51°18.164 3°1.597 39.2 5.5 42 9.8
2005-04-07 08:35:56 51°18.169 3°1.603 41.2 5.8 55 9.9
2005-04-07 08:36:02 51°18.174 3°1.615 39.2 5.5 49 9
2005-04-07 08:36:06 51°18.18 3°1.621 46.8 5.5 49 9
2005-04-07 08:36:12 51°18.185 3°1.632 47.9 5.5 55 9.2
2005-04-07 08:36:16 51°18.189 3°1.639 49 5.5 55 9.4
2005-04-07 08:36:22 51°18.194 3°1.651 53.7 5.3 56 9.6
2005-04-07 08:36:26 51°18.197 3°1.659 54.4 5.2 52 9.8
2005-04-07 08:36:31 51°18.201 3°1.667 57.3 5.1 60 10
2005-04-07 08:36:36 51°18.205 3°1.677 58.2 5.1 60 10
2005-04-07 08:36:42 51°18.209 3°1.688 60.9 4.9 57 10.1
2005-04-07 08:36:46 51°18.212 3°1.697 62 4.9 57 10.1
2005-04-07 08:36:51 51°18.215 3°1.706 63.7 5 65 10
2005-04-07 08:36:56 51°18.217 3°1.716 65.3 5 65 9.8
2005-04-07 08:37:01 51°18.22 3°1.725 68.3 4.8 66 9.9
2005-04-07 08:37:06 51°18.223 3°1.735 68.1 4.8 66 9.8
2005-04-07 08:37:12 51°18.226 3°1.745 70.4 4.9 70 9.7
2005-04-07 08:37:16 51°18.227 3°1.754 71 4.8 69 9.6
2005-04-07 08:37:22 51°18.231 3°1.766 72.8 4.8 66 9.7
2005-04-07 08:37:26 51°18.232 3°1.775 74.3 4.8 73 9.6
2005-04-07 08:37:31 51°18.234 3°1.785 74.7 4.8 70 9.5
2005-04-07 08:37:36 51°18.237 3°1.795 77.1 4.7 71 9.6
2005-04-07 08:37:41 51°18.238 3°1.805 78.3 4.8 68 9.5
2005-04-07 08:37:46 51°18.24 3°1.815 79.1 4.7 73 9.5
2005-04-07 08:37:52 51°18.242 3°1.826 80.7 4.6 79 9.5
2005-04-07 08:37:56 51°18.243 3°1.833 79.4 4.6 68 9.6
2005-04-07 08:38:00 51°18.245 3°1.841 80.4 4.5 75 9.6
2005-04-07 08:38:06 51°18.247 3°1.852 77.5 4.4 69 9.6
2005-04-07 08:38:11 51°18.25 3°1.862 75.3 4.4 68 9.7
2005-04-07 08:38:16 51°18.252 3°1.869 71.8 4.4 63 9.6
2005-04-07 08:38:22 51°18.256 3°1.879 68.5 4.3 64 9.8
2005-04-07 08:38:26 51°18.258 3°1.887 65.7 4.3 58 9.7
2005-04-07 08:38:31 51°18.261 3°1.896 64.2 4.4 65 9.7
2005-04-07 08:38:36 51°18.264 3°1.905 62.7 4.5 53 9.7
2005-04-07 08:38:41 51°18.267 3°1.914 64.5 4.5 59 9.6
2005-04-07 08:38:46 51°18.27 3°1.923 63.3 4.5 59 9.4
2005-04-07 08:38:52 51°18.274 3°1.933 67.2 4.7 72 9.5
2005-04-07 08:38:56 51°18.275 3°1.942 66.8 4.6 64 9.2
2005-04-07 08:39:02 51°18.278 3°1.952 71.4 4.7 72 9.4
2005-04-07 08:39:07 51°18.279 3°1.962 73.2 4.7 72 9.4
2005-04-07 08:39:12 51°18.281 3°1.971 76.2 4.7 72 9.5
2005-04-07 08:39:16 51°18.282 3°1.979 79.8 4.7 72 9.5
2005-04-07 08:39:22 51°18.283 3°1.991 83 4.5 76 9.7
2005-04-07 08:39:26 51°18.284 3°2 86.4 4.5 76 9.7
2005-04-07 08:39:31 51°18.286 3°2.01 87.2 4.5 78 9.6
2005-04-07 08:39:36 51°18.287 3°2.019 86.8 4.5 78 9.7
2005-04-07 08:39:41 51°18.288 3°2.03 86.5 4.6 79 9.7
2005-04-07 08:39:46 51°18.29 3°2.04 84.5 4.6 79 9.7
2005-04-07 08:39:50 51°18.291 3°2.048 83.4 4.7 78 9.6
2005-04-07 08:39:56 51°18.293 3°2.059 81.2 4.7 78 9.7
2005-04-07 08:40:02 51°18.295 3°2.071 81.2 4.7 75 9.7
2005-04-07 08:40:06 51°18.297 3°2.08 79.8 4.8 72 9.6
2005-04-07 08:40:11 51°18.298 3°2.09 81.2 4.8 78 9.5
2005-04-07 08:40:16 51°18.3 3°2.1 81.9 4.8 75 9.6
2005-04-07 08:40:22 51°18.302 3°2.112 82.4 4.9 77 9.5
2005-04-07 08:40:26 51°18.303 3°2.122 83.7 4.8 76 9.6
2005-04-07 08:40:31 51°18.305 3°2.132 83.5 4.8 79 9.6
2005-04-07 08:40:36 51°18.306 3°2.141 82 4.8 74 9.6
2005-04-07 08:40:42 51°18.308 3°2.153 81.2 4.8 75 9.7
2005-04-07 08:40:46 51°18.31 3°2.161 79 4.8 71 9.5
2005-04-07 08:40:52 51°18.313 3°2.173 76.2 4.8 71 9.5
2005-04-07 08:40:56 51°18.315 3°2.181 73.6 4.8 68 9.6
2005-04-07 08:41:02 51°18.318 3°2.192 72.3 4.7 69 9.4
2005-04-07 08:41:06 51°18.32 3°2.2 72.5 4.6 70 9.7
2005-04-07 08:41:11 51°18.321 3°2.21 70.9 4.5 65 9.5
2005-04-07 08:41:16 51°18.325 3°2.219 72.7 4.5 73 9.5
2005-04-07 08:41:22 51°18.326 3°2.229 72.5 4.4 75 9.5
2005-04-07 08:41:26 51°18.329 3°2.237 72.7 4.4 75 9.6
2005-04-07 08:41:31 51°18.33 3°2.245 73.5 4.3 75 9.6
2005-04-07 08:41:36 51°18.332 3°2.254 73 4.2 70 9.5
2005-04-07 08:41:41 51°18.335 3°2.262 74.1 4.1 76 9.7
2005-04-07 08:41:46 51°18.336 3°2.271 71.7 4 69 9.4
2005-04-07 08:41:52 51°18.339 3°2.28 72.2 4 69 9.5
2005-04-07 08:41:56 51°18.341 3°2.286 71.8 4 74 9.5